createdAt,value
2023-01-28T00:02:09.641Z,28.00
2023-01-28T00:04:37.934Z,26.50
2023-01-28T00:07:06.619Z,27.30
2023-01-28T00:09:34.796Z,27.10
2023-01-28T00:12:03.180Z,28.10
2023-01-28T00:14:31.771Z,28.30
2023-01-28T00:17:00.361Z,26.60
2023-01-28T00:19:28.848Z,28.00
2023-01-28T00:21:57.023Z,28.20
2023-01-28T00:24:26.072Z,26.80
2023-01-28T00:26:54.614Z,27.30
2023-01-28T00:29:23.260Z,27.70
2023-01-28T00:31:51.865Z,28.40
2023-01-28T00:34:21.198Z,30.50
2023-01-28T00:36:58.085Z,28.00
2023-01-28T00:39:27.446Z,28.90
2023-01-28T00:41:55.873Z,30.00
2023-01-28T00:44:26.404Z,29.70
2023-01-28T00:46:54.798Z,29.90
2023-01-28T00:49:23.987Z,29.40
2023-01-28T00:51:52.387Z,31.10
2023-01-28T00:54:21.074Z,33.00
2023-01-28T00:56:49.245Z,30.50
2023-01-28T00:59:17.854Z,30.70
2023-01-28T01:01:46.417Z,26.80
2023-01-28T01:04:27.082Z,29.00
2023-01-28T01:06:55.680Z,28.10
2023-01-28T01:09:24.519Z,27.70
2023-01-28T01:11:52.855Z,28.40
2023-01-28T01:14:21.039Z,28.50
2023-01-28T01:16:49.244Z,29.00
2023-01-28T01:19:20.466Z,30.20
2023-01-28T01:21:50.921Z,28.00
2023-01-28T01:24:19.550Z,28.60
2023-01-28T01:26:48.175Z,28.70
2023-01-28T01:29:16.565Z,28.50
2023-01-28T01:31:45.396Z,30.60
2023-01-28T01:34:13.840Z,29.10
2023-01-28T01:36:44.206Z,31.20
2023-01-28T01:39:13.343Z,30.70
2023-01-28T01:41:42.063Z,30.70
2023-01-28T01:44:49.027Z,30.70
2023-01-28T01:47:18.984Z,30.10
2023-01-28T01:49:47.639Z,32.60
2023-01-28T01:52:22.778Z,30.60
2023-01-28T01:57:27.948Z,30.70
2023-01-28T01:59:58.440Z,33.90
2023-01-28T02:02:27.021Z,30.90
2023-01-28T02:04:55.352Z,31.80
2023-01-28T02:07:23.628Z,32.80
2023-01-28T02:09:51.911Z,34.00
2023-01-28T02:12:25.111Z,37.00
2023-01-28T02:15:01.568Z,33.10
2023-01-28T02:17:31.111Z,35.20
2023-01-28T02:20:03.248Z,34.10
2023-01-28T02:23:13.304Z,34.80
2023-01-28T02:26:09.987Z,33.40
2023-01-28T02:28:54.981Z,34.70
2023-01-28T02:31:33.004Z,34.00
2023-01-28T02:34:29.303Z,34.70
2023-01-28T02:37:24.189Z,37.50
2023-01-28T02:39:58.287Z,36.90
2023-01-28T02:42:32.730Z,38.00
2023-01-28T02:45:01.333Z,35.40
2023-01-28T02:47:49.252Z,38.60
2023-01-28T02:50:20.983Z,34.10
2023-01-28T02:53:21.325Z,34.20
2023-01-28T02:56:01.887Z,33.70
2023-01-28T02:58:33.449Z,34.50
2023-01-28T03:01:17.818Z,35.50
2023-01-28T03:06:21.013Z,30.40
2023-01-28T03:09:20.721Z,27.80
2023-01-28T03:12:34.422Z,29.50
2023-01-28T03:15:44.499Z,27.20
2023-01-28T03:18:42.009Z,28.10
2023-01-28T03:21:50.645Z,28.70
2023-01-28T03:24:43.564Z,26.90
2023-01-28T03:27:57.885Z,27.10
2023-01-28T03:31:11.098Z,26.50
2023-01-28T03:34:07.112Z,28.50
2023-01-28T03:36:51.878Z,29.10
2023-01-28T03:39:58.376Z,27.10
2023-01-28T03:42:26.609Z,27.10
2023-01-28T03:45:17.242Z,28.70
2023-01-28T03:47:47.418Z,27.70
2023-01-28T03:50:17.873Z,28.70
2023-01-28T03:53:14.901Z,29.80
2023-01-28T03:55:51.177Z,24.80
2023-01-28T03:58:21.086Z,29.30
2023-01-28T04:00:49.559Z,26.80
2023-01-28T04:03:20.632Z,30.40
2023-01-28T04:06:02.022Z,27.90
2023-01-28T04:08:52.983Z,28.00
2023-01-28T04:11:32.649Z,28.40
2023-01-28T04:14:04.187Z,25.70
2023-01-28T04:17:11.194Z,28.90
2023-01-28T04:19:40.548Z,28.60
2023-01-28T04:22:11.535Z,27.60
2023-01-28T04:24:41.732Z,27.40
2023-01-28T04:27:10.521Z,26.00
2023-01-28T04:29:39.411Z,27.40
2023-01-28T04:32:25.807Z,26.40
2023-01-28T04:35:08.032Z,26.30
2023-01-28T04:37:51.441Z,28.20
2023-01-28T04:40:49.983Z,27.20
2023-01-28T04:43:27.401Z,25.00
2023-01-28T04:46:12.475Z,26.90
2023-01-28T04:48:54.666Z,27.70
2023-01-28T04:51:43.524Z,25.70
2023-01-28T04:54:50.684Z,28.30
2023-01-28T04:57:19.167Z,28.90
2023-01-28T04:59:47.780Z,28.90
2023-01-28T05:02:17.453Z,29.40
2023-01-28T05:04:47.513Z,29.20
2023-01-28T05:07:30.613Z,29.70
2023-01-28T05:09:59.104Z,31.30
2023-01-28T05:12:27.964Z,31.00
2023-01-28T05:14:58.120Z,30.90
2023-01-28T05:17:28.135Z,31.60
2023-01-28T05:19:56.739Z,30.90
2023-01-28T05:22:26.151Z,31.50
2023-01-28T05:25:17.538Z,34.30
2023-01-28T05:27:51.254Z,32.00
2023-01-28T05:30:21.255Z,31.50
2023-01-28T05:32:50.100Z,30.10
2023-01-28T05:35:23.783Z,29.70
2023-01-28T05:37:52.369Z,31.40
2023-01-28T05:40:21.382Z,32.50
2023-01-28T05:42:50.056Z,30.20
2023-01-28T05:45:26.565Z,32.70
2023-01-28T05:48:06.000Z,31.30
2023-01-28T05:50:48.273Z,30.90
2023-01-28T05:53:21.946Z,31.20
2023-01-28T05:55:56.198Z,33.70
2023-01-28T06:00:56.693Z,28.30
2023-01-28T06:03:28.813Z,31.40
2023-01-28T06:05:57.913Z,31.60
2023-01-28T06:08:26.096Z,29.00
2023-01-28T06:10:54.587Z,28.20
2023-01-28T06:13:25.321Z,27.20
2023-01-28T06:16:16.793Z,30.40
2023-01-28T06:19:04.246Z,28.60
2023-01-28T06:21:32.639Z,28.40
2023-01-28T06:24:00.992Z,26.90
2023-01-28T06:26:29.399Z,27.40
2023-01-28T06:28:57.685Z,29.70
2023-01-28T06:31:26.068Z,25.70
2023-01-28T06:33:54.246Z,28.20
2023-01-28T06:36:23.142Z,29.70
2023-01-28T06:38:51.326Z,29.50
2023-01-28T06:41:19.505Z,26.30
2023-01-28T06:43:48.094Z,31.90
2023-01-28T06:46:16.936Z,27.80
2023-01-28T06:48:45.477Z,27.90
2023-01-28T06:51:13.764Z,26.60
2023-01-28T06:53:42.255Z,26.80
2023-01-28T06:56:11.099Z,25.20
2023-01-28T06:58:39.838Z,28.80
2023-01-28T07:01:09.031Z,25.80
2023-01-28T07:03:37.419Z,27.40
2023-01-28T07:06:06.633Z,25.80
2023-01-28T07:08:35.871Z,23.50
2023-01-28T07:11:04.745Z,25.50
2023-01-28T07:13:33.310Z,24.10
2023-01-28T07:16:02.114Z,23.80
2023-01-28T07:18:30.693Z,23.10
2023-01-28T07:20:59.180Z,27.40
2023-01-28T07:23:29.083Z,23.90
2023-01-28T07:26:04.651Z,23.60
2023-01-28T07:28:32.978Z,21.70
2023-01-28T07:31:01.741Z,22.70
2023-01-28T07:33:30.109Z,26.60
2023-01-28T07:35:58.390Z,30.40
2023-01-28T07:38:26.710Z,26.00
2023-01-28T07:40:54.848Z,23.90
2023-01-28T07:43:23.952Z,25.40
2023-01-28T07:45:52.743Z,25.90
2023-01-28T07:48:21.342Z,24.70
2023-01-28T07:50:51.303Z,22.60
2023-01-28T07:53:20.546Z,23.70
2023-01-28T07:55:48.848Z,23.70
2023-01-28T07:58:17.943Z,24.50
2023-01-28T08:00:46.223Z,22.80
2023-01-28T08:03:16.770Z,22.60
2023-01-28T08:05:47.818Z,23.10
2023-01-28T08:08:17.216Z,21.40
2023-01-28T08:10:46.178Z,23.20
2023-01-28T08:13:15.745Z,19.60
2023-01-28T08:15:44.936Z,21.10
2023-01-28T08:18:15.046Z,21.90
2023-01-28T08:20:46.511Z,22.50
2023-01-28T08:23:16.419Z,22.00
2023-01-28T08:25:46.438Z,23.60
2023-01-28T08:28:16.627Z,23.60
2023-01-28T08:30:45.413Z,22.00
2023-01-28T08:33:16.004Z,23.60
2023-01-28T08:35:44.979Z,21.20
2023-01-28T08:38:18.026Z,23.30
2023-01-28T08:40:50.766Z,22.00
2023-01-28T08:43:19.162Z,21.90
2023-01-28T08:45:47.643Z,23.60
2023-01-28T08:48:17.968Z,21.50
2023-01-28T08:50:46.579Z,23.90
2023-01-28T08:53:18.074Z,22.00
2023-01-28T08:55:47.020Z,23.20
2023-01-28T08:58:17.352Z,23.00
2023-01-28T09:00:46.580Z,22.00
2023-01-28T09:03:15.723Z,22.80
2023-01-28T09:05:44.343Z,23.10
2023-01-28T09:08:14.783Z,23.20
2023-01-28T09:10:43.361Z,23.20
2023-01-28T09:13:16.366Z,23.50
2023-01-28T09:15:44.888Z,23.50
2023-01-28T09:18:13.430Z,23.10
2023-01-28T09:20:41.702Z,24.70
2023-01-28T09:23:10.662Z,21.90
2023-01-28T09:25:39.007Z,22.50
2023-01-28T09:28:07.701Z,23.00
2023-01-28T09:30:37.608Z,22.40
2023-01-28T09:33:07.509Z,21.80
2023-01-28T09:35:37.041Z,23.70
2023-01-28T09:38:05.928Z,22.00
2023-01-28T09:40:43.640Z,22.80
2023-01-28T09:43:41.995Z,21.30
2023-01-28T09:46:16.571Z,23.50
2023-01-28T09:48:51.249Z,24.50
2023-01-28T09:51:44.964Z,24.20
2023-01-28T09:54:19.626Z,25.30
2023-01-28T09:56:51.948Z,20.60
2023-01-28T09:59:23.049Z,22.50
2023-01-28T10:02:14.660Z,21.80
2023-01-28T10:04:46.319Z,18.90
2023-01-28T10:07:56.564Z,21.60
2023-01-28T10:10:42.703Z,18.90
2023-01-28T10:13:17.184Z,24.10
2023-01-28T10:15:49.216Z,22.40
2023-01-28T10:18:27.048Z,22.60
2023-01-28T10:21:02.792Z,23.70
2023-01-28T10:23:38.033Z,20.80
2023-01-28T10:26:21.359Z,21.70
2023-01-28T10:28:55.305Z,24.20
2023-01-28T10:31:30.260Z,22.30
2023-01-28T10:33:59.178Z,23.40
2023-01-28T10:36:27.692Z,22.60
2023-01-28T10:38:56.404Z,26.40
2023-01-28T10:41:26.713Z,22.00
2023-01-28T10:43:57.549Z,20.70
2023-01-28T10:46:36.882Z,21.30
2023-01-28T10:49:28.120Z,18.70
2023-01-28T10:51:56.594Z,20.00
2023-01-28T10:54:28.046Z,22.00
2023-01-28T10:57:02.112Z,19.80
2023-01-28T10:59:34.754Z,17.60
2023-01-28T11:02:06.492Z,18.50
2023-01-28T11:04:36.422Z,19.10
2023-01-28T11:07:16.460Z,19.80
2023-01-28T11:09:50.074Z,19.00
2023-01-28T11:12:28.133Z,19.60
2023-01-28T11:15:02.023Z,20.50
2023-01-28T11:20:19.530Z,19.20
2023-01-28T11:22:49.415Z,20.20
2023-01-28T11:25:31.540Z,21.10
2023-01-28T11:28:02.975Z,20.40
2023-01-28T11:30:41.268Z,19.40
2023-01-28T11:33:22.987Z,18.00
2023-01-28T11:36:05.249Z,18.40
2023-01-28T11:38:34.697Z,19.30
2023-01-28T11:41:03.185Z,21.70
2023-01-28T11:43:32.315Z,19.60
2023-01-28T11:46:18.931Z,20.00
2023-01-28T11:49:12.747Z,21.30
2023-01-28T11:51:59.043Z,21.10
2023-01-28T11:55:05.192Z,22.30
2023-01-28T11:57:38.073Z,21.30
2023-01-28T12:00:31.707Z,21.30
2023-01-28T12:03:09.840Z,21.10
2023-01-28T12:05:55.315Z,19.10
2023-01-28T12:08:46.417Z,22.90
2023-01-28T12:11:57.065Z,22.10
2023-01-28T12:14:48.685Z,22.60
2023-01-28T12:17:54.664Z,22.00
2023-01-28T12:20:26.281Z,20.70
2023-01-28T12:23:13.394Z,22.40
2023-01-28T12:25:46.383Z,18.10
2023-01-28T12:28:30.741Z,18.20
2023-01-28T12:31:15.211Z,21.30
2023-01-28T12:33:59.843Z,19.10
2023-01-28T12:36:28.159Z,19.50
2023-01-28T12:39:24.444Z,17.70
2023-01-28T12:42:13.904Z,19.70
2023-01-28T12:44:52.419Z,18.70
2023-01-28T12:47:34.934Z,19.30
2023-01-28T12:50:18.271Z,18.80
2023-01-28T12:53:12.502Z,18.80
2023-01-28T12:55:47.154Z,18.10
2023-01-28T12:58:37.544Z,18.70
2023-01-28T13:01:11.657Z,19.80
2023-01-28T13:03:52.424Z,18.40
2023-01-28T13:06:33.293Z,20.10
2023-01-28T13:09:11.908Z,20.60
2023-01-28T13:11:41.508Z,18.10
2023-01-28T13:14:12.470Z,20.30
2023-01-28T13:16:41.317Z,18.90
2023-01-28T13:19:18.657Z,19.10
2023-01-28T13:21:50.309Z,18.10
2023-01-28T13:24:23.395Z,21.80
2023-01-28T13:26:55.282Z,18.00
2023-01-28T13:29:30.211Z,19.20
2023-01-28T13:32:01.776Z,18.40
2023-01-28T13:34:33.905Z,20.70
2023-01-28T13:37:29.076Z,20.40
2023-01-28T13:40:23.702Z,21.90
2023-01-28T13:43:34.467Z,20.20
2023-01-28T13:46:06.154Z,19.60
2023-01-28T13:48:51.999Z,21.30
2023-01-28T13:51:31.395Z,19.90
2023-01-28T13:54:06.876Z,18.20
2023-01-28T13:56:56.856Z,19.10
2023-01-28T13:59:59.533Z,20.30
2023-01-28T14:02:56.560Z,19.20
2023-01-28T14:05:51.141Z,18.50
2023-01-28T14:08:53.918Z,18.00
2023-01-28T14:11:53.714Z,18.50
2023-01-28T14:14:40.213Z,17.60
2023-01-28T14:17:14.426Z,18.30
2023-01-28T14:19:44.818Z,18.10
2023-01-28T14:22:19.299Z,18.10
2023-01-28T14:24:48.788Z,18.20
2023-01-28T14:27:20.717Z,17.50
2023-01-28T14:30:08.898Z,18.00
2023-01-28T14:32:44.951Z,18.50
2023-01-28T14:35:19.693Z,19.10
2023-01-28T14:37:48.268Z,18.10
2023-01-28T14:40:17.739Z,18.50
2023-01-28T14:42:50.876Z,17.50
2023-01-28T14:45:38.499Z,18.40
2023-01-28T14:48:26.740Z,17.40
2023-01-28T14:51:19.580Z,19.00
2023-01-28T14:54:10.889Z,17.80
2023-01-28T14:56:44.894Z,17.20
2023-01-28T14:59:34.463Z,17.10
2023-01-28T15:02:05.053Z,18.70
2023-01-28T15:04:34.891Z,19.40
2023-01-28T15:07:27.048Z,17.70
2023-01-28T15:10:08.182Z,17.00
2023-01-28T15:12:41.011Z,18.10
2023-01-28T15:15:21.771Z,18.20
2023-01-28T15:17:50.733Z,17.20
2023-01-28T15:20:22.109Z,18.30
2023-01-28T15:22:52.852Z,15.40
2023-01-28T15:25:23.396Z,16.60
2023-01-28T15:27:55.151Z,15.40
2023-01-28T15:30:27.059Z,15.00
2023-01-28T15:32:59.572Z,15.10
2023-01-28T15:35:28.420Z,16.90
2023-01-28T15:37:57.086Z,17.10
2023-01-28T15:40:26.387Z,18.10
2023-01-28T15:42:57.748Z,16.80
2023-01-28T15:45:29.710Z,17.50
2023-01-28T15:48:06.601Z,16.40
2023-01-28T15:50:35.071Z,18.00
2023-01-28T15:53:09.309Z,17.00
2023-01-28T15:55:40.331Z,16.70
2023-01-28T15:58:30.441Z,18.00
2023-01-28T16:01:05.060Z,17.50
2023-01-28T16:03:34.515Z,19.40
2023-01-28T16:06:10.125Z,19.40
2023-01-28T16:08:59.227Z,20.10
2023-01-28T16:11:32.654Z,18.40
2023-01-28T16:16:34.616Z,17.40
2023-01-28T16:19:06.760Z,18.40
2023-01-28T16:21:43.695Z,18.20
2023-01-28T16:24:21.412Z,20.30
2023-01-28T16:27:03.504Z,20.60
2023-01-28T16:29:32.437Z,18.90
2023-01-28T16:32:01.751Z,18.40
2023-01-28T16:34:30.174Z,19.80
2023-01-28T16:37:00.393Z,19.60
2023-01-28T16:39:30.233Z,19.30
2023-01-28T16:41:58.607Z,18.30
2023-01-28T16:44:26.988Z,18.10
2023-01-28T16:46:55.658Z,19.70
2023-01-28T16:49:24.902Z,20.70
2023-01-28T16:51:53.762Z,19.10
2023-01-28T16:54:22.667Z,19.90
2023-01-28T16:56:51.161Z,18.90
2023-01-28T16:59:19.540Z,22.60
2023-01-28T17:01:49.127Z,21.50
2023-01-28T17:04:17.482Z,23.10
2023-01-28T17:06:46.127Z,24.50
2023-01-28T17:09:15.360Z,25.40
2023-01-28T17:11:44.061Z,26.10
2023-01-28T17:14:12.609Z,24.90
2023-01-28T17:16:41.039Z,24.40
2023-01-28T17:19:09.396Z,26.50
2023-01-28T17:21:37.789Z,24.30
2023-01-28T17:24:06.964Z,27.00
2023-01-28T17:26:36.617Z,29.30
2023-01-28T17:29:06.585Z,25.70
2023-01-28T17:31:36.312Z,27.50
2023-01-28T17:34:07.275Z,36.40
2023-01-28T17:36:35.830Z,34.20
2023-01-28T17:39:06.148Z,34.10
2023-01-28T17:41:34.777Z,28.50
2023-01-28T17:44:04.717Z,28.20
2023-01-28T17:46:33.379Z,23.30
2023-01-28T17:49:02.326Z,21.20
2023-01-28T17:51:30.765Z,21.30
2023-01-28T17:53:59.252Z,23.10
2023-01-28T17:56:29.167Z,24.20
2023-01-28T17:59:02.878Z,21.20
2023-01-28T18:01:31.601Z,19.60
2023-01-28T18:04:00.629Z,19.10
2023-01-28T18:06:33.420Z,19.80
2023-01-28T18:09:02.372Z,19.20
2023-01-28T18:11:32.419Z,17.50
2023-01-28T18:14:01.364Z,17.90
2023-01-28T18:16:29.750Z,16.90
2023-01-28T18:18:58.158Z,15.50
2023-01-28T18:21:51.853Z,16.60
2023-01-28T18:24:26.256Z,15.70
2023-01-28T18:26:58.406Z,15.30
2023-01-28T18:29:31.308Z,13.70
2023-01-28T18:31:59.926Z,15.10
2023-01-28T18:34:31.773Z,12.80
2023-01-28T18:37:00.627Z,14.20
2023-01-28T18:39:31.226Z,16.30
2023-01-28T18:42:00.345Z,17.10
2023-01-28T18:44:30.350Z,17.10
2023-01-28T18:46:59.180Z,17.70
2023-01-28T18:49:27.673Z,16.50
2023-01-28T18:51:56.463Z,15.80
2023-01-28T18:54:25.059Z,16.30
2023-01-28T18:56:53.334Z,15.70
2023-01-28T18:59:21.923Z,15.80
2023-01-28T19:01:50.853Z,17.40
2023-01-28T19:04:19.512Z,15.30
2023-01-28T19:06:49.855Z,15.90
2023-01-28T19:09:18.321Z,15.70
2023-01-28T19:11:48.447Z,14.10
2023-01-28T19:14:17.332Z,16.60
2023-01-28T19:16:45.692Z,14.10
2023-01-28T19:19:14.011Z,14.00
2023-01-28T19:21:42.294Z,13.30
2023-01-28T19:24:12.781Z,18.50
2023-01-28T19:26:44.234Z,16.00
2023-01-28T19:29:15.635Z,17.60
2023-01-28T19:31:44.741Z,12.60
2023-01-28T19:34:13.232Z,14.50
2023-01-28T19:36:42.551Z,13.50
2023-01-28T19:39:12.615Z,12.40
2023-01-28T19:41:41.251Z,11.40
2023-01-28T19:44:10.454Z,11.10
2023-01-28T19:46:40.976Z,8.70
2023-01-28T19:49:10.896Z,9.50
2023-01-28T19:51:39.175Z,9.20
2023-01-28T19:54:07.461Z,9.40
2023-01-28T19:56:36.357Z,10.50
2023-01-28T19:59:05.147Z,10.00
2023-01-28T20:01:33.849Z,9.70
2023-01-28T20:04:02.535Z,9.70
2023-01-28T20:06:32.241Z,10.70
2023-01-28T20:09:14.772Z,10.60
2023-01-28T20:11:43.044Z,8.90
2023-01-28T20:14:11.421Z,8.40
2023-01-28T20:16:39.801Z,9.80
2023-01-28T20:19:14.537Z,10.00
2023-01-28T20:21:43.299Z,9.80
2023-01-28T20:24:13.319Z,8.90
2023-01-28T20:26:43.261Z,10.40
2023-01-28T20:29:15.476Z,10.80
2023-01-28T20:31:44.525Z,9.20
2023-01-28T20:34:17.910Z,10.00
2023-01-28T20:36:46.533Z,8.80
2023-01-28T20:39:15.125Z,8.80
2023-01-28T20:41:43.703Z,8.50
2023-01-28T20:44:12.300Z,10.70
2023-01-28T20:46:40.690Z,9.00
2023-01-28T20:49:10.419Z,8.20
2023-01-28T20:51:39.427Z,9.70
2023-01-28T20:54:07.678Z,10.40
2023-01-28T20:56:35.855Z,9.10
2023-01-28T20:59:06.152Z,5.40
2023-01-28T21:01:36.619Z,8.40
2023-01-28T21:04:05.939Z,8.70
2023-01-28T21:06:35.284Z,9.20
2023-01-28T21:09:05.106Z,9.10
2023-01-28T21:11:34.038Z,8.00
2023-01-28T21:14:02.427Z,8.30
2023-01-28T21:16:30.705Z,7.60
2023-01-28T21:19:01.551Z,9.20
2023-01-28T21:21:30.248Z,9.10
2023-01-28T21:24:01.978Z,8.00
2023-01-28T21:26:30.392Z,8.50
2023-01-28T21:28:58.872Z,8.70
2023-01-28T21:31:27.774Z,9.00
2023-01-28T21:33:57.661Z,9.30
2023-01-28T21:36:26.933Z,8.40
2023-01-28T21:38:57.392Z,8.50
2023-01-28T21:41:26.299Z,9.60
2023-01-28T21:43:57.367Z,8.50
2023-01-28T21:46:28.633Z,9.10
2023-01-28T21:49:02.121Z,9.30
2023-01-28T21:51:36.576Z,9.50
2023-01-28T21:54:16.495Z,9.90
2023-01-28T21:56:46.919Z,9.70
2023-01-28T21:59:28.938Z,9.70
2023-01-28T22:01:57.902Z,8.70
2023-01-28T22:04:37.776Z,9.80
2023-01-28T22:07:08.598Z,9.30
2023-01-28T22:09:37.875Z,10.00
2023-01-28T22:12:08.190Z,9.20
2023-01-28T22:14:38.149Z,9.90
2023-01-28T22:17:09.271Z,9.90
2023-01-28T22:19:39.001Z,10.00
2023-01-28T22:22:07.334Z,9.80
2023-01-28T22:24:35.723Z,10.40
2023-01-28T22:27:04.471Z,10.10
2023-01-28T22:29:33.887Z,10.30
2023-01-28T22:32:04.989Z,9.50
2023-01-28T22:34:33.316Z,9.30
2023-01-28T22:37:01.494Z,8.80
2023-01-28T22:39:29.877Z,10.20
2023-01-28T22:41:58.263Z,10.20
2023-01-28T22:44:27.259Z,11.10
2023-01-28T22:46:55.705Z,10.20
2023-01-28T22:49:26.699Z,10.40
2023-01-28T22:51:54.866Z,9.50
2023-01-28T22:54:23.043Z,9.00
2023-01-28T22:56:51.941Z,9.60
2023-01-28T22:59:20.429Z,9.30
2023-01-28T23:01:48.735Z,9.90
2023-01-28T23:04:16.992Z,9.00
2023-01-28T23:06:45.377Z,9.70
2023-01-28T23:09:13.967Z,8.80
2023-01-28T23:11:42.150Z,9.10
2023-01-28T23:14:29.116Z,8.60
2023-01-28T23:17:16.275Z,8.90
2023-01-28T23:20:02.874Z,8.40
2023-01-28T23:22:51.951Z,9.00
2023-01-28T23:25:22.660Z,9.50
2023-01-28T23:27:51.145Z,9.40
2023-01-28T23:30:24.747Z,8.70
2023-01-28T23:35:28.356Z,9.50
2023-01-28T23:37:56.759Z,8.90
2023-01-28T23:40:27.336Z,9.70
2023-01-28T23:42:56.526Z,8.70
2023-01-28T23:45:25.294Z,9.30
2023-01-28T23:47:53.779Z,9.40
2023-01-28T23:50:22.980Z,9.10
2023-01-28T23:52:51.467Z,9.40
2023-01-28T23:55:19.952Z,10.30
2023-01-28T23:57:48.643Z,9.10
